Time;durP1;ratioP1;P1;durP2;ratioP2;P2;SDS_P1;SDS_P2;PMS_P1;PMS_P2;Temp;Humidity;BMP_temperature;BMP_pressure;BME280_temperature;BME280_humidity;BME280_pressure;Samples;Min_cycle;Max_cycle;Signal;HPM_P1;HPM_P2
2022/07/21 00:00:26;;;;;;;;;3.33;3.33;;;;;23.28;58.09;101543.75;5119716;27;45397;-77
2022/07/21 00:02:55;;;;;;;;;4.67;3.00;;;;;23.15;57.97;101494.34;5100143;27;46377;-77
2022/07/21 00:05:21;;;;;;;;;3.67;3.67;;;;;23.00;58.73;101478.94;5113042;27;45282;-77
2022/07/21 00:07:47;;;;;;;;;2.33;2.33;;;;;23.20;58.41;101518.22;5097298;27;45368;-78
2022/07/21 00:10:14;;;;;;;;;2.33;2.33;;;;;23.31;58.41;101517.84;5116812;27;45395;-75
2022/07/21 00:12:42;;;;;;;;;4.00;3.00;;;;;23.24;58.61;101519.88;5119254;27;46308;-78
2022/07/21 00:15:08;;;;;;;;;2.33;2.33;;;;;23.13;59.05;101495.34;5116799;27;45346;-79
2022/07/21 00:17:34;;;;;;;;;3.00;3.00;;;;;23.13;58.87;101516.72;5115530;27;45445;-79
2022/07/21 00:20:01;;;;;;;;;2.00;2.00;;;;;23.02;59.05;101488.63;5115623;27;45459;-75
2022/07/21 00:22:27;;;;;;;;;2.00;2.00;;;;;22.81;58.75;101458.22;5115491;27;46203;-78
2022/07/21 00:24:53;;;;;;;;;2.00;2.00;;;;;23.19;58.92;101514.69;5115585;27;45728;-74
2022/07/21 00:27:18;;;;;;;;;4.00;3.00;;;;;23.22;58.81;101519.06;5109312;27;45458;-78
2022/07/21 00:29:44;;;;;;;;;2.33;2.00;;;;;23.27;58.45;101517.06;5106336;27;45398;-79
2022/07/21 00:32:10;;;;;;;;;3.00;3.00;;;;;23.15;58.67;101498.84;5099038;27;45476;-77
2022/07/21 00:34:35;;;;;;;;;3.00;3.00;;;;;23.00;58.19;101466.44;5113421;27;45545;-79
2022/07/21 00:37:01;;;;;;;;;5.00;3.00;;;;;23.25;58.18;101516.25;5118290;27;45434;-79
2022/07/21 00:39:27;;;;;;;;;3.00;3.00;;;;;23.25;59.05;101522.50;5117850;27;45616;-79
2022/07/21 00:41:52;;;;;;;;;2.33;2.33;;;;;23.18;58.54;101521.00;5115236;27;45537;-79
2022/07/21 00:44:23;;;;;;;;;3.67;3.00;;;;;23.13;59.14;101519.41;5113791;27;45328;-79
2022/07/21 00:46:49;;;;;;;;;3.67;3.67;;;;;23.02;58.82;101517.16;5109586;27;45441;-78
2022/07/21 00:49:18;;;;;;;;;3.00;3.00;;;;;23.09;58.51;101516.00;5116718;27;45509;-78
2022/07/21 00:51:44;;;;;;;;;4.00;3.67;;;;;23.17;58.28;101519.22;5113776;27;47145;-78
2022/07/21 00:54:10;;;;;;;;;2.67;2.67;;;;;23.02;58.01;101479.75;5099971;27;45341;-78
2022/07/21 00:56:36;;;;;;;;;3.00;2.67;;;;;23.24;57.96;101514.53;5115518;27;45448;-78
2022/07/21 00:59:02;;;;;;;;;9.33;6.33;;;;;23.11;58.38;101503.41;5117913;27;45551;-79
2022/07/21 01:01:28;;;;;;;;;6.00;4.00;;;;;22.67;59.15;101468.53;5116884;27;45356;-78
2022/07/21 01:03:56;;;;;;;;;4.00;4.00;;;;;22.94;59.12;101505.81;5112890;27;45468;-79
2022/07/21 01:06:25;;;;;;;;;3.33;3.33;;;;;22.88;58.52;101496.25;5115278;27;45533;-79
2022/07/21 01:08:51;;;;;;;;;3.00;3.00;;;;;23.08;58.51;101524.91;5110999;27;45720;-78
2022/07/21 01:11:20;;;;;;;;;4.00;3.00;;;;;22.96;59.28;101495.97;5119945;27;45842;-80
2022/07/21 01:13:46;;;;;;;;;3.67;3.00;;;;;22.90;59.19;101493.50;5119697;27;45485;-78
2022/07/21 01:16:12;;;;;;;;;3.00;3.00;;;;;23.02;59.45;101512.66;5119645;27;44867;-77
2022/07/21 01:18:37;;;;;;;;;4.00;3.00;;;;;22.92;58.74;101495.22;5123872;27;45506;-77
2022/07/21 01:21:25;;;;;;;;;3.00;3.00;;;;;22.88;58.81;101479.38;5124717;27;45431;-77
2022/07/21 01:23:51;;;;;;;;;3.33;3.33;;;;;23.13;58.73;101522.94;5109401;27;45360;-76
2022/07/21 01:26:17;;;;;;;;;4.00;4.00;;;;;23.09;58.90;101518.66;5103079;27;45685;-78
2022/07/21 01:28:42;;;;;;;;;3.33;3.33;;;;;22.97;58.58;101503.94;5101462;27;45452;-78
2022/07/21 01:31:08;;;;;;;;;3.00;3.00;;;;;23.12;58.19;101515.88;5100382;27;46682;-80
2022/07/21 01:33:35;;;;;;;;;3.00;2.00;;;;;23.00;58.62;101484.28;5101408;27;45444;-76
2022/07/21 01:36:00;;;;;;;;;5.00;2.00;;;;;23.12;58.62;101494.50;5101695;27;45380;-77
2022/07/21 01:41:29;;;;;;;;;4.00;3.00;;;;;23.09;59.06;101497.28;5123909;27;45246;-68
2022/07/21 01:43:57;;;;;;;;;2.67;2.00;;;;;23.07;59.18;101501.81;5120809;27;45315;-70
2022/07/21 01:46:23;;;;;;;;;5.33;3.00;;;;;23.06;59.01;101497.38;5116349;27;45554;-73
2022/07/21 01:48:50;;;;;;;;;3.00;3.00;;;;;23.11;58.43;101489.19;5114893;27;45395;-76
2022/07/21 01:51:16;;;;;;;;;3.00;3.00;;;;;22.98;58.22;101465.63;5117453;27;45735;-80
2022/07/21 01:53:42;;;;;;;;;3.33;3.33;;;;;22.90;59.07;101480.16;5117578;27;45487;-77
2022/07/21 01:56:08;;;;;;;;;2.00;2.00;;;;;22.98;59.18;101500.34;5119530;27;45464;-77
2022/07/21 01:58:33;;;;;;;;;4.00;3.00;;;;;22.80;59.64;101487.63;5122741;27;45542;-76
2022/07/21 02:00:59;;;;;;;;;4.00;4.00;;;;;22.83;59.46;101500.91;5123029;27;45412;-75
2022/07/21 02:03:25;;;;;;;;;2.00;2.00;;;;;22.76;59.30;101478.88;5122324;27;45409;-78
2022/07/21 02:05:51;;;;;;;;;5.00;4.00;;;;;22.94;59.15;101509.38;5117787;27;45489;-79
2022/07/21 02:08:17;;;;;;;;;3.67;2.33;;;;;22.96;58.83;101504.84;5119257;27;45400;-78
2022/07/21 02:10:43;;;;;;;;;3.00;3.00;;;;;22.88;59.13;101496.25;5115856;27;45390;-77
2022/07/21 02:13:12;;;;;;;;;3.00;3.00;;;;;23.00;59.44;101524.34;5108434;27;45324;-78
2022/07/21 02:15:37;;;;;;;;;4.33;4.33;;;;;22.88;59.84;101527.44;5118129;27;45714;-78
2022/07/21 02:18:04;;;;;;;;;5.00;4.00;;;;;22.62;59.69;101494.53;5114993;27;45620;-78
2022/07/21 02:20:30;;;;;;;;;4.67;4.00;;;;;22.86;59.23;101520.34;5100069;27;47455;-79
2022/07/21 02:22:56;;;;;;;;;4.67;4.00;;;;;22.91;59.41;101524.66;5118697;27;45418;-80
2022/07/21 02:25:21;;;;;;;;;4.00;4.00;;;;;22.82;58.73;101501.81;5117354;27;45450;-79
2022/07/21 02:27:47;;;;;;;;;4.00;4.00;;;;;22.91;59.20;101519.31;5116242;27;45584;-78
2022/07/21 02:30:13;;;;;;;;;3.00;3.00;;;;;22.86;59.20;101509.66;5117006;27;46752;-76
2022/07/21 02:32:39;;;;;;;;;4.67;4.00;;;;;22.73;59.61;101505.72;5117549;27;45683;-79
2022/07/21 02:35:05;;;;;;;;;5.00;5.00;;;;;22.74;59.65;101511.91;5114804;27;45397;-77
2022/07/21 02:37:31;;;;;;;;;4.33;4.33;;;;;22.48;59.91;101473.69;5104026;27;45493;-77
2022/07/21 02:39:57;;;;;;;;;3.67;3.33;;;;;22.75;59.44;101519.84;5119324;27;45675;-80
2022/07/21 02:42:22;;;;;;;;;5.00;4.00;;;;;22.71;59.64;101515.56;5116076;27;45390;-74
2022/07/21 02:44:48;;;;;;;;;3.33;3.33;;;;;22.70;59.33;101503.13;5113900;27;46338;-79
2022/07/21 02:47:14;;;;;;;;;5.00;3.33;;;;;22.83;58.99;101527.63;5121000;27;45446;-79
2022/07/21 02:49:39;;;;;;;;;4.00;4.00;;;;;22.86;58.79;101519.47;5119327;27;45442;-76
2022/07/21 02:52:05;;;;;;;;;3.67;3.67;;;;;22.89;58.56;101521.16;5117142;27;45438;-74
2022/07/21 02:54:32;;;;;;;;;5.00;5.00;;;;;22.86;58.89;101520.34;5119707;27;45493;-79
2022/07/21 02:56:57;;;;;;;;;4.00;4.00;;;;;22.86;59.56;101527.50;5118190;27;45427;-77
2022/07/21 02:59:23;;;;;;;;;7.00;6.00;;;;;22.72;59.19;101517.31;5116736;27;45331;-78
2022/07/21 03:01:49;;;;;;;;;5.33;5.33;;;;;22.81;58.85;101534.81;5121024;27;45478;-79
2022/07/21 03:04:15;;;;;;;;;7.00;7.00;;;;;22.87;58.32;101534.56;5121382;27;45439;-79
2022/07/21 03:06:42;;;;;;;;;6.67;6.00;;;;;22.89;58.30;101531.84;5119440;27;45343;-75
2022/07/21 03:09:09;;;;;;;;;5.00;5.00;;;;;22.83;58.81;101543.63;5102077;27;46122;-76
2022/07/21 03:11:39;;;;;;;;;7.67;6.67;;;;;22.72;58.47;101511.09;5126631;27;45458;-76
2022/07/21 03:14:04;;;;;;;;;6.67;6.00;;;;;22.92;58.33;101539.75;5107024;27;45266;-78
2022/07/21 03:16:30;;;;;;;;;6.00;6.00;;;;;22.92;57.74;101529.06;5109227;27;45367;-71
2022/07/21 03:18:57;;;;;;;;;6.67;6.67;;;;;22.94;57.96;101538.75;5120257;27;45362;-78
2022/07/21 03:21:22;;;;;;;;;8.00;8.00;;;;;22.90;57.84;101533.56;5117650;27;45293;-78
2022/07/21 03:23:48;;;;;;;;;7.00;7.00;;;;;22.91;57.82;101530.00;5122322;27;45398;-76
2022/07/21 03:26:15;;;;;;;;;8.33;8.33;;;;;22.99;57.43;101544.84;5105647;27;45555;-77
2022/07/21 03:28:42;;;;;;;;;8.00;7.67;;;;;22.96;57.61;101536.91;5119174;27;45451;-73
2022/07/21 03:31:09;;;;;;;;;7.67;6.33;;;;;22.92;58.07;101548.66;5116899;27;45392;-80
2022/07/21 03:33:35;;;;;;;;;9.33;9.33;;;;;22.75;57.44;101519.00;5119066;27;45623;-78
2022/07/21 03:36:01;;;;;;;;;6.00;6.00;;;;;22.44;57.43;101480.03;5107205;27;45572;-77
2022/07/21 03:38:27;;;;;;;;;8.33;6.67;;;;;22.77;57.41;101533.16;5111793;27;45453;-77
2022/07/21 03:40:53;;;;;;;;;12.33;11.00;;;;;22.76;57.44;101537.63;5105057;27;45667;-72
2022/07/21 03:43:18;;;;;;;;;9.00;8.67;;;;;22.75;57.39;101533.22;5118650;27;45443;-79
2022/07/21 03:45:44;;;;;;;;;9.33;8.33;;;;;22.88;57.38;101556.81;5100562;27;45454;-78
2022/07/21 03:48:11;;;;;;;;;8.67;8.67;;;;;22.80;57.43;101546.41;5106032;27;46960;-79
2022/07/21 03:50:39;;;;;;;;;8.33;8.00;;;;;22.83;57.74;101552.50;5097940;27;45550;-79
2022/07/21 03:53:06;;;;;;;;;11.33;10.00;;;;;22.85;57.65;101558.69;5097836;27;45743;-78
2022/07/21 03:55:31;;;;;;;;;7.33;7.33;;;;;22.63;57.52;101529.19;5095162;27;46031;-77
2022/07/21 03:58:03;;;;;;;;;9.33;9.33;;;;;22.88;57.67;101570.19;5095137;27;45963;-78
2022/07/21 04:00:40;;;;;;;;;11.00;9.00;;;;;22.85;57.65;101571.13;5108209;27;45347;-79
2022/07/21 04:03:06;;;;;;;;;8.00;8.00;;;;;22.80;57.94;101557.97;5115505;27;45393;-79
2022/07/21 04:05:33;;;;;;;;;12.67;10.33;;;;;22.74;57.82;101560.00;5118604;27;45429;-77
2022/07/21 04:07:59;;;;;;;;;10.33;10.00;;;;;22.80;57.99;101567.75;5120501;27;45403;-79
2022/07/21 04:10:30;;;;;;;;;11.67;8.67;;;;;22.78;58.29;101573.19;5120741;27;45635;-77
2022/07/21 04:12:57;;;;;;;;;11.00;9.33;;;;;22.71;58.15;101563.66;5120939;27;45431;-78
2022/07/21 04:15:23;;;;;;;;;9.33;9.33;;;;;22.65;58.03;101571.84;5121453;27;45375;-76
2022/07/21 04:17:49;;;;;;;;;12.33;9.33;;;;;22.73;58.07;101575.16;5120543;27;45454;-78
2022/07/21 04:20:15;;;;;;;;;10.00;10.00;;;;;22.62;58.32;101551.47;5123235;27;45273;-78
2022/07/21 04:22:42;;;;;;;;;10.33;10.33;;;;;22.75;58.34;101575.94;5120330;27;45470;-77
2022/07/21 04:25:09;;;;;;;;;12.67;10.67;;;;;22.73;58.11;101580.50;5119487;27;45496;-78
2022/07/21 04:27:36;;;;;;;;;11.00;10.33;;;;;22.75;58.25;101580.41;5118302;27;45552;-78
2022/07/21 04:30:11;;;;;;;;;12.33;11.33;;;;;22.52;57.89;101543.84;5122588;27;45300;-80
2022/07/21 04:32:37;;;;;;;;;8.67;8.67;;;;;22.78;58.11;101582.97;5119040;27;45483;-74
2022/07/21 04:35:07;;;;;;;;;11.00;11.00;;;;;22.73;58.23;101580.50;5116874;27;45475;-76
2022/07/21 04:37:34;;;;;;;;;14.67;12.67;;;;;22.68;58.12;101570.88;5107566;27;45607;-79
2022/07/21 04:40:00;;;;;;;;;16.67;13.67;;;;;22.82;58.13;101590.81;5118406;27;45526;-77
2022/07/21 04:42:25;;;;;;;;;12.00;11.67;;;;;22.76;58.24;101580.38;5120622;27;45566;-73
2022/07/21 04:44:51;;;;;;;;;13.67;12.00;;;;;22.84;58.23;101590.78;5123092;27;45358;-75
2022/07/21 04:47:17;;;;;;;;;12.67;12.00;;;;;22.65;58.00;101561.19;5119024;27;45325;-71
2022/07/21 04:49:43;;;;;;;;;18.33;14.33;;;;;22.78;58.12;101578.53;5118115;27;45324;-70
2022/07/21 04:52:08;;;;;;;;;13.33;12.33;;;;;22.79;58.18;101590.94;5117897;27;45462;-78
2022/07/21 04:54:34;;;;;;;;;14.00;12.67;;;;;22.72;58.22;101585.88;5114650;27;45425;-78
2022/07/21 04:57:02;;;;;;;;;15.33;15.33;;;;;22.76;58.05;101583.03;5113623;27;46691;-72
2022/07/21 04:59:29;;;;;;;;;12.67;12.67;;;;;22.83;57.95;101594.38;5119220;27;45841;-78
2022/07/21 05:02:03;;;;;;;;;13.00;12.00;;;;;22.86;57.86;101596.94;5119356;27;45417;-78
2022/07/21 05:04:28;;;;;;;;;16.00;14.33;;;;;22.70;59.04;101596.59;5118008;27;45463;-78
2022/07/21 05:06:54;;;;;;;;;17.33;13.67;;;;;22.48;59.01;101560.91;5117882;27;45865;-79
2022/07/21 05:09:20;;;;;;;;;15.00;12.00;;;;;22.74;58.65;101592.91;5118273;27;45471;-78
2022/07/21 05:11:45;;;;;;;;;13.33;13.33;;;;;22.64;58.62;101570.13;5117809;27;45492;-78
2022/07/21 05:14:11;;;;;;;;;16.67;14.33;;;;;22.82;58.43;101604.16;5118077;27;45530;-78
2022/07/21 05:16:37;;;;;;;;;17.00;14.67;;;;;22.80;58.15;101590.03;5117811;27;46238;-79
2022/07/21 05:19:03;;;;;;;;;15.67;15.00;;;;;22.85;58.25;101600.50;5117931;27;45388;-78
2022/07/21 05:21:31;;;;;;;;;16.00;15.00;;;;;22.84;58.01;101596.97;5117769;27;45411;-75
2022/07/21 05:23:57;;;;;;;;;15.67;14.00;;;;;22.87;58.11;101596.00;5118047;27;45481;-79
2022/07/21 05:26:23;;;;;;;;;13.00;12.33;;;;;22.89;57.96;101599.50;5117555;27;46324;-73
2022/07/21 05:28:49;;;;;;;;;13.00;13.00;;;;;22.88;57.93;101596.88;5120380;27;45360;-80
2022/07/21 05:31:15;;;;;;;;;22.33;15.33;;;;;22.93;57.78;101589.59;5108356;27;45380;-70
2022/07/21 05:33:41;;;;;;;;;14.67;13.67;;;;;22.90;57.46;101573.63;5111767;27;45704;-69
2022/07/21 05:36:07;;;;;;;;;13.00;13.00;;;;;23.06;57.44;101585.56;5105247;27;45475;-68
2022/07/21 05:38:33;;;;;;;;;12.00;12.00;;;;;23.15;57.00;101587.03;5116341;27;45677;-76
2022/07/21 05:41:03;;;;;;;;;18.67;16.00;;;;;23.27;57.61;101600.78;5119308;27;45542;-78
2022/07/21 05:43:30;;;;;;;;;13.00;13.00;;;;;23.38;57.33;101607.56;5122004;27;45430;-71
2022/07/21 05:45:56;;;;;;;;;13.00;12.67;;;;;23.45;57.09;101601.03;5120875;27;45581;-73
2022/07/21 05:48:22;;;;;;;;;23.00;18.67;;;;;23.65;56.53;101609.16;5109380;27;45459;-71
2022/07/21 05:50:48;;;;;;;;;18.33;18.00;;;;;23.58;56.60;101586.25;5103110;27;45606;-74
2022/07/21 05:53:13;;;;;;;;;15.33;15.33;;;;;23.78;56.52;101606.91;5104148;27;45622;-79
2022/07/21 05:55:39;;;;;;;;;18.00;17.67;;;;;23.64;55.85;101571.78;5103856;27;45853;-74
2022/07/21 05:58:04;;;;;;;;;16.00;14.00;;;;;23.88;55.54;101610.97;5110770;27;45881;-78
2022/07/21 06:00:30;;;;;;;;;20.67;17.33;;;;;23.97;55.55;101608.88;5101394;27;45511;-76
2022/07/21 06:02:56;;;;;;;;;12.67;12.67;;;;;24.09;54.90;101625.28;5117800;27;45372;-72
2022/07/21 06:05:21;;;;;;;;;14.33;13.67;;;;;23.71;55.14;101571.47;5103481;27;45561;-78
2022/07/21 06:07:48;;;;;;;;;16.00;15.00;;;;;24.13;54.67;101621.56;5096092;27;45444;-76
2022/07/21 06:10:14;;;;;;;;;16.00;16.00;;;;;24.16;54.55;101609.00;5095849;27;45531;-75
2022/07/21 06:12:41;;;;;;;;;15.00;13.33;;;;;24.31;54.59;101619.91;5097622;27;45423;-77
2022/07/21 06:15:07;;;;;;;;;16.00;15.33;;;;;24.24;54.42;101621.09;5096526;27;45547;-81
2022/07/21 06:17:44;;;;;;;;;13.33;11.67;;;;;24.26;54.83;101635.31;5097946;27;45613;-77
2022/07/21 06:20:10;;;;;;;;;14.67;14.33;;;;;24.27;54.91;101630.81;5100172;27;45487;-82
2022/07/21 06:22:37;;;;;;;;;17.67;15.33;;;;;24.24;54.28;101621.09;5103898;27;45429;-83
2022/07/21 06:25:04;;;;;;;;;14.33;14.00;;;;;24.37;54.51;101625.94;5103088;27;46102;-76
2022/07/21 06:27:31;;;;;;;;;15.33;12.67;;;;;24.28;54.42;101613.84;5099079;27;45672;-76
2022/07/21 06:29:58;;;;;;;;;14.67;14.67;;;;;24.32;54.25;101628.81;5111650;27;44759;-81
2022/07/21 06:32:25;;;;;;;;;17.67;16.00;;;;;24.37;54.12;101625.94;5098180;27;45526;-80
2022/07/21 06:34:54;;;;;;;;;14.67;14.67;;;;;24.51;53.89;101640.56;5101907;27;46027;-76
2022/07/21 06:37:21;;;;;;;;;14.00;14.00;;;;;24.34;53.85;101614.47;5096022;27;45414;-81
2022/07/21 06:39:47;;;;;;;;;17.33;15.67;;;;;24.63;54.14;101651.66;5102161;27;45578;-73
2022/07/21 06:42:12;;;;;;;;;15.67;14.67;;;;;24.60;53.53;101635.72;5101667;27;45312;-78
2022/07/21 06:44:38;;;;;;;;;18.00;17.33;;;;;24.67;53.38;101638.06;5119914;27;47609;-70
2022/07/21 06:47:04;;;;;;;;;15.33;15.33;;;;;24.68;53.30;101634.47;5103642;27;45369;-70
2022/07/21 06:49:31;;;;;;;;;15.67;15.33;;;;;24.59;53.28;101610.75;5111026;27;45823;-71
2022/07/21 06:51:57;;;;;;;;;16.67;15.33;;;;;24.80;53.06;101641.13;5113169;27;45685;-74
2022/07/21 06:54:23;;;;;;;;;13.33;13.33;;;;;24.79;53.03;101625.97;5100901;27;45542;-77
2022/07/21 06:56:49;;;;;;;;;14.33;14.00;;;;;24.82;53.16;101627.63;5100478;27;45961;-75
2022/07/21 06:59:18;;;;;;;;;16.33;16.00;;;;;24.90;52.86;101628.19;5101408;27;45795;-75
2022/07/21 07:01:47;;;;;;;;;16.67;14.33;;;;;24.88;52.87;101614.84;5110399;27;45290;-81
2022/07/21 07:04:14;;;;;;;;;15.00;13.67;;;;;25.09;52.62;101644.34;5103080;27;45459;-78
2022/07/21 07:06:40;;;;;;;;;16.00;13.33;;;;;25.11;52.19;101646.00;5104173;27;45558;-81
2022/07/21 07:09:06;;;;;;;;;14.00;13.33;;;;;25.16;52.60;101652.03;5103860;27;45550;-81
2022/07/21 07:11:34;;;;;;;;;15.33;14.67;;;;;25.17;52.11;101650.19;5107555;27;45275;-81
2022/07/21 07:14:09;;;;;;;;;18.33;16.33;;;;;25.10;52.35;101659.47;5117490;27;46152;-73
2022/07/21 07:16:35;;;;;;;;;17.67;14.00;;;;;24.98;52.84;101653.69;5105861;27;45388;-81
2022/07/21 07:19:04;;;;;;;;;17.67;16.33;;;;;24.85;52.79;101636.44;5097371;27;45367;-72
2022/07/21 07:21:30;;;;;;;;;15.33;14.33;;;;;25.01;52.54;101658.06;5097627;27;45655;-76
2022/07/21 07:24:06;;;;;;;;;15.67;15.67;;;;;24.97;52.36;101635.03;5101421;27;47467;-83
2022/07/21 07:26:32;;;;;;;;;17.67;15.00;;;;;25.10;52.73;101654.09;5105211;27;45390;-81
2022/07/21 07:28:58;;;;;;;;;16.00;15.67;;;;;25.17;51.94;101653.78;5116085;27;45277;-79
2022/07/21 07:31:24;;;;;;;;;17.00;14.33;;;;;25.16;52.29;101654.69;5097860;27;45605;-76
2022/07/21 07:33:50;;;;;;;;;15.00;15.00;;;;;25.09;52.01;101641.66;5095106;27;46274;-78
2022/07/21 07:36:15;;;;;;;;;17.67;15.67;;;;;25.18;52.37;101658.22;5095353;27;45549;-78
2022/07/21 07:38:41;;;;;;;;;18.00;18.00;;;;;25.15;52.06;101661.00;5114524;27;45407;-79
2022/07/21 07:41:07;;;;;;;;;17.33;16.33;;;;;25.22;52.68;101660.75;5116605;27;45674;-76
2022/07/21 07:43:32;;;;;;;;;17.33;16.00;;;;;25.31;51.63;101661.22;5115589;27;45485;-73
2022/07/21 07:46:00;;;;;;;;;14.67;13.00;;;;;25.21;51.63;101643.81;5115948;27;45440;-78
2022/07/21 07:48:25;;;;;;;;;14.33;14.00;;;;;25.24;52.15;101654.38;5115759;27;45408;-77
2022/07/21 07:50:51;;;;;;;;;15.33;13.00;;;;;25.30;52.07;101672.88;5115629;27;45295;-78
2022/07/21 07:53:16;;;;;;;;;16.67;15.00;;;;;25.27;51.80;101654.28;5116100;27;45387;-74
2022/07/21 07:55:42;;;;;;;;;15.33;15.33;;;;;25.36;51.83;101669.91;5116535;27;45441;-77
2022/07/21 07:58:08;;;;;;;;;14.67;14.67;;;;;25.18;51.61;101628.72;5116695;27;45518;-75
2022/07/21 08:00:35;;;;;;;;;19.00;16.33;;;;;25.41;52.04;101669.72;5116047;27;45600;-78
2022/07/21 08:03:01;;;;;;;;;17.67;15.67;;;;;25.46;51.96;101680.22;5114266;27;46218;-78
2022/07/21 08:05:26;;;;;;;;;16.00;16.00;;;;;25.49;52.05;101682.78;5115021;27;45911;-78
2022/07/21 08:07:52;;;;;;;;;15.00;15.00;;;;;25.52;51.61;101667.41;5115918;27;45526;-77
2022/07/21 08:10:18;;;;;;;;;14.33;14.33;;;;;25.54;51.76;101673.59;5118838;27;45361;-82
2022/07/21 08:12:43;;;;;;;;;15.67;15.67;;;;;25.49;51.52;101675.59;5115364;27;45549;-77
2022/07/21 08:15:12;;;;;;;;;14.00;13.67;;;;;25.43;51.22;101683.91;5118886;27;45730;-80
2022/07/21 08:17:37;;;;;;;;;16.00;16.00;;;;;25.53;51.53;101684.38;5117737;27;45324;-76
2022/07/21 08:20:05;;;;;;;;;13.67;13.67;;;;;25.53;51.47;101682.59;5127383;27;45272;-79
2022/07/21 08:22:30;;;;;;;;;16.67;16.67;;;;;25.43;51.17;101672.31;5121888;27;46542;-72
2022/07/21 08:24:56;;;;;;;;;16.67;16.67;;;;;25.52;51.10;101688.00;5105330;27;45577;-74
2022/07/21 08:27:22;;;;;;;;;15.33;15.00;;;;;25.64;51.07;101690.13;5093487;27;45472;-76
2022/07/21 08:29:47;;;;;;;;;16.33;16.33;;;;;25.54;51.09;101664.66;5094178;27;45229;-78
2022/07/21 08:32:13;;;;;;;;;17.00;16.33;;;;;25.62;50.50;101675.91;5110742;27;47943;-74
2022/07/21 08:34:39;;;;;;;;;18.00;17.67;;;;;25.78;50.67;101687.66;5116149;27;45502;-77
2022/07/21 08:37:04;;;;;;;;;17.67;15.67;;;;;25.81;50.71;101687.50;5095569;27;45570;-80
2022/07/21 08:39:30;;;;;;;;;16.33;16.00;;;;;25.83;50.31;101678.53;5095446;27;45465;-78
2022/07/21 08:41:57;;;;;;;;;17.67;17.33;;;;;26.02;50.39;101698.22;5098226;27;45464;-78
2022/07/21 08:44:23;;;;;;;;;17.67;16.67;;;;;26.15;49.86;101683.28;5100091;27;45723;-76
2022/07/21 08:46:50;;;;;;;;;18.67;16.33;;;;;26.37;49.24;101691.16;5094809;27;45776;-77
2022/07/21 08:49:21;;;;;;;;;18.67;16.33;;;;;26.51;49.24;101694.97;5102589;27;45898;-76
2022/07/21 08:51:47;;;;;;;;;19.67;17.33;;;;;26.56;48.78;101682.22;5114449;27;46535;-75
2022/07/21 08:54:12;;;;;;;;;20.00;19.33;;;;;26.76;48.74;101692.81;5114378;27;45515;-78
2022/07/21 08:56:41;;;;;;;;;19.33;19.33;;;;;26.79;48.43;101687.28;5114132;27;45376;-77
2022/07/21 08:59:07;;;;;;;;;18.33;16.33;;;;;26.93;48.36;101705.38;5114543;27;45665;-73
2022/07/21 09:01:33;;;;;;;;;17.67;16.33;;;;;26.86;48.05;101675.28;5114325;27;46037;-76
2022/07/21 09:04:23;;;;;;;;;25.00;24.00;;;;;26.93;48.07;101699.13;5100953;27;45458;-77
2022/07/21 09:07:03;;;;;;;;;21.00;18.67;;;;;26.78;47.77;101673.94;5113728;27;45723;-76
2022/07/21 09:09:31;;;;;;;;;20.00;20.00;;;;;26.88;47.73;101698.50;5104577;27;45431;-76
2022/07/21 09:11:58;;;;;;;;;22.33;22.33;;;;;26.89;47.98;101694.91;5114601;27;45546;-77
2022/07/21 09:14:26;;;;;;;;;23.67;19.33;;;;;27.12;47.50;101699.06;5114650;27;45380;-76
2022/07/21 09:16:54;;;;;;;;;22.67;20.33;;;;;27.28;46.96;101683.88;5116405;27;45632;-78
2022/07/21 09:19:31;;;;;;;;;17.33;16.67;;;;;27.40;46.68;101695.81;5117461;27;45452;-78
2022/07/21 09:21:59;;;;;;;;;23.00;20.33;;;;;27.51;46.44;101679.09;5119706;27;45984;-72
2022/07/21 09:24:29;;;;;;;;;20.00;20.00;;;;;27.51;46.57;101685.34;5116229;27;45502;-77
2022/07/21 09:27:13;;;;;;;;;21.33;19.33;;;;;27.56;46.26;101698.56;5111978;27;45416;-77
2022/07/21 09:29:49;;;;;;;;;18.33;17.00;;;;;27.56;45.90;101698.56;5106489;27;45855;-71
2022/07/21 09:32:33;;;;;;;;;18.67;16.67;;;;;27.51;46.22;101700.63;5119536;27;45854;-74
2022/07/21 09:35:04;;;;;;;;;20.67;19.67;;;;;27.49;46.21;101693.50;5121586;27;45464;-78
2022/07/21 09:37:30;;;;;;;;;17.33;16.00;;;;;27.42;46.26;101696.59;5111514;27;45422;-78
2022/07/21 09:39:59;;;;;;;;;16.67;16.33;;;;;27.29;46.35;101685.66;5118232;27;45555;-72
2022/07/21 09:42:32;;;;;;;;;17.00;16.33;;;;;27.04;47.48;101696.78;5117958;27;47691;-76
2022/07/21 09:45:01;;;;;;;;;19.00;18.67;;;;;26.82;47.33;101662.09;5117706;27;45453;-76
2022/07/21 09:47:29;;;;;;;;;25.67;21.33;;;;;27.09;47.22;101702.78;5117742;27;45429;-77
2022/07/21 09:50:03;;;;;;;;;20.00;18.33;;;;;27.14;47.31;101705.22;5118083;27;45425;-76
2022/07/21 09:52:37;;;;;;;;;19.33;17.00;;;;;27.12;46.72;101683.78;5117374;27;45432;-76
2022/07/21 09:55:11;;;;;;;;;21.67;19.33;;;;;27.29;46.74;101693.72;5117677;27;45564;-77
2022/07/21 09:57:37;;;;;;;;;19.33;17.33;;;;;27.36;46.65;101687.06;5117690;27;45316;-76
2022/07/21 10:00:09;;;;;;;;;17.67;17.67;;;;;27.37;46.38;101694.16;5117605;27;45560;-77
2022/07/21 10:02:36;;;;;;;;;17.33;17.33;;;;;27.46;46.19;101690.13;5116023;27;45601;-78
2022/07/21 10:05:07;;;;;;;;;20.67;19.33;;;;;27.35;46.25;101650.31;5119993;27;45578;-78
2022/07/21 10:07:35;;;;;;;;;22.33;21.00;;;;;27.54;46.66;101687.88;5124813;27;45488;-77
2022/07/21 10:10:03;;;;;;;;;16.67;16.67;;;;;27.57;46.37;101679.63;5122000;27;45359;-79
2022/07/21 10:12:28;;;;;;;;;18.00;18.00;;;;;27.47;45.74;101648.78;5122556;27;45530;-74
2022/07/21 10:14:55;;;;;;;;;19.33;17.33;;;;;27.82;45.41;101676.44;5121857;27;45758;-77
2022/07/21 10:17:22;;;;;;;;;14.00;12.00;;;;;28.00;45.09;101681.78;5119250;27;45552;-76
2022/07/21 10:20:03;;;;;;;;;17.00;15.33;;;;;28.07;44.79;101678.69;5124824;27;45538;-76
2022/07/21 10:22:49;;;;;;;;;19.33;17.00;;;;;28.07;44.93;101673.28;5120086;27;46446;-76
2022/07/21 10:25:16;;;;;;;;;18.67;18.00;;;;;27.98;44.67;101654.97;5111468;27;45586;-73
2022/07/21 10:28:13;;;;;;;;;23.67;20.00;;;;;28.15;44.67;101689.00;5118915;27;45475;-79
2022/07/21 10:30:55;;;;;;;;;19.33;17.33;;;;;28.26;44.71;101694.66;5119459;27;45397;-77
2022/07/21 10:33:42;;;;;;;;;17.00;17.00;;;;;28.06;44.03;101660.78;5104655;27;45528;-79
2022/07/21 10:36:09;;;;;;;;;19.67;19.67;;;;;28.09;44.45;101673.19;5110172;27;45457;-75
2022/07/21 10:38:36;;;;;;;;;22.00;20.67;;;;;28.26;44.16;101685.69;5104613;27;45347;-72
2022/07/21 10:41:05;;;;;;;;;17.00;14.33;;;;;28.34;43.94;101692.38;5103592;27;45449;-70
2022/07/21 10:43:38;;;;;;;;;21.67;21.33;;;;;28.46;44.06;101695.34;5102741;27;46130;-71
2022/07/21 10:46:34;;;;;;;;;22.67;20.00;;;;;28.42;44.00;101697.31;5117020;27;45298;-69
2022/07/21 10:49:00;;;;;;;;;25.00;20.67;;;;;28.49;43.25;101695.16;5112631;27;45530;-70
2022/07/21 10:51:26;;;;;;;;;19.00;19.00;;;;;28.51;43.30;101680.66;5110098;27;45590;-73
2022/07/21 10:54:16;;;;;;;;;16.67;16.33;;;;;28.76;43.24;101692.69;5110410;27;45661;-74
2022/07/21 10:56:42;;;;;;;;;17.00;17.00;;;;;28.72;42.63;101670.44;5106288;27;45180;-76
2022/07/21 10:59:08;;;;;;;;;19.67;17.33;;;;;28.84;42.27;101686.84;5108716;27;45344;-77
2022/07/21 11:01:35;;;;;;;;;18.67;18.00;;;;;28.80;42.73;101669.09;5117632;27;45450;-75
2022/07/21 11:04:12;;;;;;;;;21.67;21.67;;;;;28.99;42.50;101683.19;5114285;27;45554;-71
2022/07/21 11:06:41;;;;;;;;;22.00;19.00;;;;;28.81;41.93;101636.66;5116007;27;45455;-75
2022/07/21 11:09:15;;;;;;;;;18.33;17.33;;;;;28.94;42.63;101679.91;5116459;27;45509;-73
2022/07/21 11:11:46;;;;;;;;;19.33;19.33;;;;;29.05;42.39;101677.44;5116588;27;45406;-71
2022/07/21 11:14:14;;;;;;;;;16.67;16.33;;;;;29.15;42.71;101684.03;5113152;27;46772;-74
2022/07/21 11:17:01;;;;;;;;;16.00;14.25;;;;;29.20;42.41;101680.19;5109495;27;45320;-78
2022/07/21 11:19:48;;;;;;;;;17.33;15.67;;;;;29.27;42.42;101687.81;5103353;27;45508;-75